Главная страница
METAR-TAF:

METAR-TAF

Аэропорты :

Rafha, Саудовская Аравия

широта: 29-37N, долгота: 043-29E, высота над уровнем моря: 449 м

Текущие метеонаблюдения

Эта сводка был подготовлена 28 минут назад, в 19:00 UTC
Ветер 11 Узел от восточно-юго-восточный
Температура 33°C
Влажность 14%
Давление 1006 hPa
Видимость 10 км и более
Нет облачности ниже 1500 м, и нет кучево-дождевой облачности

METAR: OERF 171900Z 12011KT CAVOK 33/02 Q1006 NOSIG

Время: 22:28 (19:28 UTC)

Прогноз

Эта сводка был подготовлена 8 часа и 28 минут назад, в 11:00 UTC
Прогноз действительный с 17-го 12 UTC до 18-го 18 UTC
Ветер 10 Узел от юго-восточный
Видимость 10 км и более
Нет облачности ниже 1500 м, и нет кучево-дождевой облачности
изменения
С 17-го 22 UTC до 18-го 00 UTC
Ветер 3 Узел переменных направлений
изменения
С 18-го 09 UTC до 18-го 11 UTC
Ветер 12 Узел от северно-северо-западный

TAF: OERF 171100Z 1712/1818 14010KT CAVOK BECMG 1722/1800 VRB03KT BECMG 1809/1811 34012KT

Метеонаблюдения и прогнозы для более 4000 аэропортов (сводки METAR и TAF).

Имеющиеся станции представлены на карте желтыми и красными точками.

Чтобы увидеть название станции, наведите на нее мышь.

Затем щелкните, чтобы увидеть метеонаблюдения и метеопрогнозы.

Управление картой: чтобы увеличить масштаб, щелкните зеленые кнопки с черным крестиком; чтобы уменьшить масштаб, щелкните зеленую кнопку с тире; для просмотра соседних карт щелкайте зеленые стрелки.


METAR-TAF: